East Eight Airport


Codes: FLEH/
Name: East Eight Airport
City: Kapu
Country: Zambia
Elevation: 4000 ft.

Photos at East Eight Airport


   Photos courtesy of SpottingLog. You can add your own sightings and photos by signing up for a free trial today.



No photos found.

Weather at East Eight Airport


Time (UTC)DescriptionTempratureWindCloud coverageVisibilityPressureHumidity
26-Jun-2024 00:00Clear Sky12°C7 mph, SE0%10000m1020hPa84%
26-Jun-2024 03:00Clear Sky11°C7 mph, SE0%10000m1020hPa87%
26-Jun-2024 06:00Clear Sky14°C9 mph, SE0%10000m1021hPa74%
26-Jun-2024 09:00Clear Sky23°C11 mph, E0%10000m1020hPa37%
26-Jun-2024 12:00Clear Sky26°C7 mph, E0%10000m1015hPa27%
26-Jun-2024 15:00Clear Sky24°C7 mph, E0%10000m1015hPa30%
26-Jun-2024 18:00Few Clouds19°C9 mph, SE21%10000m1019hPa42%
26-Jun-2024 21:00Few Clouds14°C7 mph, SE14%10000m1020hPa61%
27-Jun-2024 00:00Clear Sky12°C7 mph, SE7%10000m1019hPa71%
27-Jun-2024 03:00Clear Sky11°C7 mph, SE0%10000m1021hPa76%
27-Jun-2024 06:00Clear Sky15°C9 mph, SE0%10000m1022hPa63%
27-Jun-2024 09:00Few Clouds24°C9 mph, E17%10000m1019hPa33%
27-Jun-2024 12:00Few Clouds27°C7 mph, E17%10000m1016hPa24%
27-Jun-2024 15:00Clear Sky25°C4 mph, E2%10000m1015hPa28%
27-Jun-2024 18:00Clear Sky18°C11 mph, SE10%10000m1019hPa46%
27-Jun-2024 21:00Clear Sky14°C7 mph, SE0%10000m1020hPa60%
28-Jun-2024 00:00Clear Sky12°C4 mph, SE8%10000m1020hPa71%
28-Jun-2024 03:00Clear Sky11°C7 mph, SE5%10000m1021hPa76%
28-Jun-2024 06:00Clear Sky16°C9 mph, SE4%10000m1021hPa57%
28-Jun-2024 09:00Few Clouds24°C9 mph, E12%10000m1019hPa33%
28-Jun-2024 12:00Few Clouds27°C4 mph, E21%10000m1015hPa24%
28-Jun-2024 15:00Scattered Clouds25°C4 mph, E26%10000m1014hPa28%
28-Jun-2024 18:00Scattered Clouds19°C9 mph, SE37%10000m1018hPa40%
28-Jun-2024 21:00Few Clouds14°C7 mph, SE15%10000m1020hPa66%
29-Jun-2024 00:00Few Clouds11°C4 mph, SE12%10000m1020hPa79%
29-Jun-2024 03:00Few Clouds10°C7 mph, SE13%10000m1020hPa85%
29-Jun-2024 06:00Few Clouds15°C9 mph, SE19%10000m1021hPa64%
29-Jun-2024 09:00Clear Sky24°C7 mph, SE7%10000m1019hPa35%
29-Jun-2024 12:00Clear Sky28°C2 mph, SE9%10000m1014hPa24%
29-Jun-2024 15:00Scattered Clouds25°C2 mph, SE30%10000m1014hPa28%
29-Jun-2024 18:00Few Clouds18°C2 mph, NE23%10000m1017hPa39%
29-Jun-2024 21:00Clear Sky14°C4 mph, SE7%10000m1018hPa61%
30-Jun-2024 00:00Clear Sky12°C4 mph, SE8%10000m1019hPa73%
30-Jun-2024 03:00Scattered Clouds11°C4 mph, SE44%10000m1019hPa77%
30-Jun-2024 06:00Broken Clouds16°C7 mph, SE53%10000m1020hPa58%
30-Jun-2024 09:00Overcast Clouds25°C7 mph, E100%10000m1018hPa31%
30-Jun-2024 12:00Overcast Clouds30°C2 mph, SW100%10000m1013hPa21%
30-Jun-2024 15:00Broken Clouds26°C0 mph, SE71%10000m1013hPa26%
30-Jun-2024 18:00Scattered Clouds18°C0 mph, N44%10000m1016hPa40%
30-Jun-2024 21:00Few Clouds15°C4 mph, SE21%10000m1019hPa51%